createdAt,value
2018-08-17T00:00:37.723Z,20.60
2018-08-17T00:05:41.772Z,20.50
2018-08-17T00:10:46.296Z,20.40
2018-08-17T00:15:50.299Z,20.40
2018-08-17T00:20:53.920Z,20.30
2018-08-17T00:25:58.624Z,20.20
2018-08-17T00:31:03.261Z,20.20
2018-08-17T00:36:07.556Z,20.10
2018-08-17T00:41:12.439Z,20.10
2018-08-17T00:46:16.654Z,19.90
2018-08-17T00:51:20.632Z,19.90
2018-08-17T00:56:24.266Z,19.80
2018-08-17T01:01:28.509Z,19.80
2018-08-17T01:06:32.506Z,19.70
2018-08-17T01:11:36.402Z,19.60
2018-08-17T01:16:40.159Z,19.60
2018-08-17T01:21:44.355Z,19.50
2018-08-17T01:26:48.404Z,19.40
2018-08-17T01:31:53.335Z,19.40
2018-08-17T01:36:58.348Z,19.30
2018-08-17T01:42:03.103Z,19.30
2018-08-17T01:47:07.310Z,19.20
2018-08-17T01:52:11.224Z,19.20
2018-08-17T01:57:15.203Z,19.10
2018-08-17T02:02:18.895Z,19.10
2018-08-17T02:07:23.329Z,19.00
2018-08-17T02:12:27.100Z,18.90
2018-08-17T02:17:30.879Z,18.90
2018-08-17T02:22:34.909Z,18.80
2018-08-17T02:27:38.958Z,18.80
2018-08-17T02:32:43.056Z,18.70
2018-08-17T02:37:47.642Z,18.70
2018-08-17T02:42:51.694Z,18.60
2018-08-17T02:47:55.461Z,18.60
2018-08-17T02:52:59.700Z,18.50
2018-08-17T02:58:03.717Z,18.50
2018-08-17T03:03:08.580Z,18.50
2018-08-17T03:08:12.967Z,18.40
2018-08-17T03:13:17.740Z,18.30
2018-08-17T03:18:22.327Z,18.30
2018-08-17T03:23:26.232Z,18.20
2018-08-17T03:28:30.626Z,18.20
2018-08-17T03:33:34.405Z,18.20
2018-08-17T03:38:38.599Z,18.10
2018-08-17T03:43:43.831Z,18.10
2018-08-17T03:48:49.203Z,18.10
2018-08-17T03:53:54.019Z,18.00
2018-08-17T03:58:58.608Z,18.00
2018-08-17T04:04:02.426Z,17.90
2018-08-17T04:09:08.595Z,17.90
2018-08-17T04:14:12.564Z,17.90
2018-08-17T04:19:19.139Z,17.80
2018-08-17T04:24:23.713Z,17.80
2018-08-17T04:29:27.469Z,17.80
2018-08-17T04:34:31.362Z,17.70
2018-08-17T04:39:35.628Z,17.70
2018-08-17T04:44:39.626Z,17.80
2018-08-17T04:49:44.672Z,17.80
2018-08-17T04:54:49.246Z,17.80
2018-08-17T04:59:53.942Z,17.80
2018-08-17T05:04:59.359Z,17.80
2018-08-17T05:10:03.725Z,17.80
2018-08-17T05:15:07.926Z,17.80
2018-08-17T05:20:11.784Z,17.90
2018-08-17T05:25:15.479Z,18.00
2018-08-17T05:30:19.116Z,18.10
2018-08-17T05:35:22.727Z,18.30
2018-08-17T05:40:27.263Z,18.40
2018-08-17T05:45:32.127Z,18.60
2018-08-17T05:50:36.631Z,18.80
2018-08-17T05:55:40.493Z,19.00
2018-08-17T06:00:44.449Z,19.20
2018-08-17T06:05:48.350Z,19.40
2018-08-17T06:10:52.102Z,19.80
2018-08-17T06:15:55.762Z,20.00
2018-08-17T06:20:59.455Z,20.40
2018-08-17T06:26:03.446Z,20.70
2018-08-17T06:31:07.606Z,21.20
2018-08-17T06:36:11.564Z,21.50
2018-08-17T06:41:15.207Z,21.90
2018-08-17T06:46:18.871Z,22.20
2018-08-17T06:51:22.685Z,22.60
2018-08-17T06:56:26.290Z,23.00
2018-08-17T07:01:30.014Z,23.30
2018-08-17T07:06:33.699Z,23.70
2018-08-17T07:11:37.607Z,24.00
2018-08-17T07:16:41.248Z,24.40
2018-08-17T07:21:44.682Z,24.60
2018-08-17T07:26:48.056Z,25.20
2018-08-17T07:31:51.602Z,25.60
2018-08-17T07:36:55.134Z,25.90
2018-08-17T07:41:58.548Z,26.20
2018-08-17T07:47:05.521Z,26.60
2018-08-17T07:52:09.047Z,26.90
2018-08-17T07:57:12.700Z,27.30
2018-08-17T08:02:16.718Z,27.50
2018-08-17T08:07:20.277Z,27.90
2018-08-17T08:12:24.839Z,28.20
2018-08-17T08:17:28.474Z,28.50
2018-08-17T08:22:32.403Z,28.90
2018-08-17T08:27:35.883Z,29.10
2018-08-17T08:32:39.558Z,29.40
2018-08-17T08:37:43.200Z,29.60
2018-08-17T08:42:46.587Z,29.80
2018-08-17T08:47:50.215Z,30.10
2018-08-17T08:52:53.788Z,30.30
2018-08-17T08:57:57.381Z,30.60
2018-08-17T09:03:00.892Z,30.80
2018-08-17T09:08:04.582Z,30.90
2018-08-17T09:13:07.979Z,31.00
2018-08-17T09:18:11.534Z,31.20
2018-08-17T09:23:15.067Z,31.30
2018-08-17T09:28:18.828Z,31.50
2018-08-17T09:33:22.375Z,31.70
2018-08-17T09:38:25.781Z,31.90
2018-08-17T09:43:29.248Z,32.20
2018-08-17T09:48:32.719Z,32.40
2018-08-17T09:53:36.164Z,32.50
2018-08-17T09:58:39.829Z,32.60
2018-08-17T10:03:47.725Z,32.70
2018-08-17T10:08:57.966Z,32.90
2018-08-17T10:14:01.316Z,33.00
2018-08-17T10:19:05.022Z,33.10
2018-08-17T10:24:09.199Z,33.20
2018-08-17T10:29:12.691Z,33.40
2018-08-17T10:34:16.808Z,33.40
2018-08-17T10:39:20.396Z,33.60
2018-08-17T10:44:23.983Z,33.80
2018-08-17T10:49:28.042Z,33.90
2018-08-17T10:54:31.546Z,34.00
2018-08-17T10:59:35.230Z,34.20
2018-08-17T11:04:38.709Z,34.30
2018-08-17T11:09:43.026Z,34.50
2018-08-17T11:14:46.594Z,34.60
2018-08-17T11:19:51.227Z,34.60
2018-08-17T11:24:54.666Z,34.80
2018-08-17T11:29:58.243Z,34.90
2018-08-17T11:35:01.767Z,35.00
2018-08-17T11:40:06.816Z,35.10
2018-08-17T11:45:29.719Z,35.20
2018-08-17T11:50:36.484Z,35.20
2018-08-17T11:55:39.840Z,35.30
2018-08-17T12:00:44.795Z,35.30
2018-08-17T12:05:48.204Z,35.30
2018-08-17T12:10:57.770Z,35.40
2018-08-17T12:16:01.228Z,35.50
2018-08-17T12:21:04.649Z,35.60
2018-08-17T12:26:08.222Z,35.60
2018-08-17T12:31:11.779Z,35.70
2018-08-17T12:36:15.390Z,35.60
2018-08-17T12:41:18.977Z,35.60
2018-08-17T12:46:23.091Z,35.70
2018-08-17T12:51:26.525Z,35.70
2018-08-17T12:56:30.681Z,35.70
2018-08-17T13:01:34.271Z,35.70
2018-08-17T13:06:37.957Z,35.70
2018-08-17T13:11:48.422Z,35.70
2018-08-17T13:16:53.051Z,35.80
2018-08-17T13:21:56.950Z,35.80
2018-08-17T13:27:00.069Z,35.70
2018-08-17T13:32:03.886Z,35.60
2018-08-17T13:37:07.584Z,35.70
2018-08-17T13:42:11.261Z,35.60
2018-08-17T13:47:14.625Z,35.60
2018-08-17T13:52:17.994Z,35.50
2018-08-17T13:57:21.492Z,35.50
2018-08-17T14:02:24.900Z,35.50
2018-08-17T14:07:28.394Z,35.40
2018-08-17T14:12:31.689Z,35.40
2018-08-17T14:17:35.397Z,35.40
2018-08-17T14:22:39.164Z,35.30
2018-08-17T14:27:42.557Z,35.30
2018-08-17T14:32:46.002Z,35.20
2018-08-17T14:37:49.544Z,35.10
2018-08-17T14:42:53.349Z,35.00
2018-08-17T14:47:56.714Z,34.90
2018-08-17T14:52:59.929Z,34.70
2018-08-17T14:58:03.061Z,34.70
2018-08-17T15:03:06.210Z,34.70
2018-08-17T15:08:09.356Z,34.50
2018-08-17T15:13:14.119Z,34.30
2018-08-17T15:18:21.828Z,34.30
2018-08-17T15:23:26.344Z,34.30
2018-08-17T15:28:30.541Z,34.20
2018-08-17T15:33:34.547Z,34.00
2018-08-17T15:38:38.426Z,33.90
2018-08-17T15:43:42.392Z,33.80
2018-08-17T15:48:51.855Z,33.70
2018-08-17T15:53:55.345Z,33.50
2018-08-17T15:58:59.138Z,33.50
2018-08-17T16:04:03.193Z,33.30
2018-08-17T16:09:09.598Z,33.30
2018-08-17T16:14:14.207Z,33.20
2018-08-17T16:19:17.641Z,33.00
2018-08-17T16:24:20.927Z,32.80
2018-08-17T16:29:24.706Z,32.70
2018-08-17T16:34:28.161Z,32.60
2018-08-17T16:39:32.673Z,32.40
2018-08-17T16:44:36.645Z,32.30
2018-08-17T16:49:40.543Z,32.30
2018-08-17T16:54:45.017Z,32.10
2018-08-17T16:59:51.218Z,32.00
2018-08-17T17:04:55.488Z,31.80
2018-08-17T17:09:59.912Z,31.80
2018-08-17T17:15:10.233Z,31.60
2018-08-17T17:20:14.932Z,31.50
2018-08-17T17:25:20.131Z,31.30
2018-08-17T17:30:26.711Z,31.10
2018-08-17T17:35:31.487Z,31.00
2018-08-17T17:40:35.370Z,30.90
2018-08-17T17:45:40.138Z,30.70
2018-08-17T17:50:45.709Z,30.50
2018-08-17T17:55:50.825Z,30.40
2018-08-17T18:01:01.385Z,30.20
2018-08-17T18:06:10.292Z,30.00
2018-08-17T18:11:18.668Z,29.80
2018-08-17T18:16:25.242Z,29.60
2018-08-17T18:21:35.138Z,29.50
2018-08-17T18:26:42.021Z,29.20
2018-08-17T18:31:50.470Z,29.10
2018-08-17T18:36:57.340Z,28.80
2018-08-17T18:42:03.428Z,28.60
2018-08-17T18:47:08.219Z,28.40
2018-08-17T18:52:18.908Z,28.30
2018-08-17T18:57:23.823Z,28.10
2018-08-17T19:02:30.411Z,27.90
2018-08-17T19:07:36.338Z,27.80
2018-08-17T19:12:47.997Z,27.60
2018-08-17T19:17:53.302Z,27.40
2018-08-17T19:22:58.638Z,27.20
2018-08-17T19:28:02.814Z,27.00
2018-08-17T19:33:11.453Z,26.90
2018-08-17T19:38:16.136Z,26.70
2018-08-17T19:43:19.993Z,26.60
2018-08-17T19:48:27.060Z,26.40
2018-08-17T19:53:37.514Z,26.30
2018-08-17T19:58:45.781Z,26.10
2018-08-17T20:03:52.115Z,26.00
2018-08-17T20:08:59.134Z,25.90
2018-08-17T20:14:03.384Z,25.70
2018-08-17T20:19:08.503Z,25.60
2018-08-17T20:24:17.227Z,25.50
2018-08-17T20:29:21.172Z,25.40
2018-08-17T20:34:25.927Z,25.30
2018-08-17T20:39:29.856Z,25.20
2018-08-17T20:44:34.303Z,25.10
2018-08-17T20:49:41.622Z,25.00
2018-08-17T20:54:49.335Z,24.90
2018-08-17T20:59:56.305Z,24.80
2018-08-17T21:10:12.867Z,24.60
2018-08-17T21:15:17.542Z,24.50
2018-08-17T21:20:25.166Z,24.40
2018-08-17T21:25:29.694Z,24.30
2018-08-17T21:30:34.778Z,24.20
2018-08-17T21:35:39.618Z,24.10
2018-08-17T21:40:46.055Z,24.00
2018-08-17T21:45:55.920Z,23.90
2018-08-17T21:51:01.542Z,23.90
2018-08-17T21:56:07.806Z,23.80
2018-08-17T22:01:15.015Z,23.70
2018-08-17T22:06:23.525Z,23.60
2018-08-17T22:11:32.692Z,23.50
2018-08-17T22:16:39.027Z,23.40
2018-08-17T22:21:43.965Z,23.30
2018-08-17T22:26:50.218Z,23.30
2018-08-17T22:31:54.596Z,23.20
2018-08-17T22:37:00.191Z,23.10
2018-08-17T22:42:04.287Z,23.00
2018-08-17T22:47:26.175Z,23.00
2018-08-17T22:52:37.419Z,22.90
2018-08-17T22:57:46.714Z,22.90
2018-08-17T23:02:55.950Z,22.80
2018-08-17T23:08:02.310Z,22.70
2018-08-17T23:13:07.044Z,22.70
2018-08-17T23:18:13.509Z,22.60
2018-08-17T23:23:18.257Z,22.60
2018-08-17T23:28:22.600Z,22.50
2018-08-17T23:33:26.609Z,22.40
2018-08-17T23:38:32.974Z,22.40
2018-08-17T23:43:37.726Z,22.40
2018-08-17T23:48:44.042Z,22.30
2018-08-17T23:53:49.610Z,22.30
2018-08-17T23:58:55.712Z,22.20
